sensor_id;sensor_type;location;lat;lon;timestamp;P1;durP1;ratioP1;P2;durP2;ratioP2
47309;SDS011;33046;52.270;6.832;2022-08-21T00:01:50;6.63;;;1.50;;
47309;SDS011;33046;52.270;6.832;2022-08-21T00:03:57;5.13;;;1.77;;
47309;SDS011;33046;52.270;6.832;2022-08-21T00:06:09;6.25;;;1.85;;
47309;SDS011;33046;52.270;6.832;2022-08-21T00:08:16;6.57;;;1.90;;
47309;SDS011;33046;52.270;6.832;2022-08-21T00:10:25;5.75;;;1.77;;
47309;SDS011;33046;52.270;6.832;2022-08-21T00:12:32;3.67;;;1.80;;
47309;SDS011;33046;52.270;6.832;2022-08-21T00:14:39;3.97;;;1.63;;
47309;SDS011;33046;52.270;6.832;2022-08-21T00:16:46;5.43;;;1.60;;
47309;SDS011;33046;52.270;6.832;2022-08-21T00:18:53;4.60;;;1.98;;
47309;SDS011;33046;52.270;6.832;2022-08-21T00:20:59;9.35;;;1.90;;
47309;SDS011;33046;52.270;6.832;2022-08-21T00:23:06;4.85;;;2.13;;
47309;SDS011;33046;52.270;6.832;2022-08-21T00:25:14;6.65;;;2.72;;
47309;SDS011;33046;52.270;6.832;2022-08-21T00:27:23;5.90;;;2.75;;
47309;SDS011;33046;52.270;6.832;2022-08-21T00:29:30;6.80;;;2.08;;
47309;SDS011;33046;52.270;6.832;2022-08-21T00:31:36;7.03;;;2.50;;
47309;SDS011;33046;52.270;6.832;2022-08-21T00:33:43;3.60;;;1.77;;
47309;SDS011;33046;52.270;6.832;2022-08-21T00:35:51;4.78;;;1.88;;
47309;SDS011;33046;52.270;6.832;2022-08-21T00:37:58;4.80;;;1.92;;
47309;SDS011;33046;52.270;6.832;2022-08-21T00:40:06;5.28;;;2.10;;
47309;SDS011;33046;52.270;6.832;2022-08-21T00:42:16;7.68;;;2.10;;
47309;SDS011;33046;52.270;6.832;2022-08-21T00:44:24;5.63;;;2.08;;
47309;SDS011;33046;52.270;6.832;2022-08-21T00:46:31;3.03;;;1.83;;
47309;SDS011;33046;52.270;6.832;2022-08-21T00:48:38;8.18;;;3.20;;
47309;SDS011;33046;52.270;6.832;2022-08-21T00:50:46;5.50;;;2.25;;
47309;SDS011;33046;52.270;6.832;2022-08-21T00:52:58;6.95;;;1.83;;
47309;SDS011;33046;52.270;6.832;2022-08-21T00:55:08;6.57;;;2.08;;
47309;SDS011;33046;52.270;6.832;2022-08-21T00:57:19;5.03;;;2.50;;
47309;SDS011;33046;52.270;6.832;2022-08-21T00:59:31;4.13;;;3.03;;
47309;SDS011;33046;52.270;6.832;2022-08-21T01:01:40;4.75;;;2.83;;
47309;SDS011;33046;52.270;6.832;2022-08-21T01:03:47;5.10;;;1.70;;
47309;SDS011;33046;52.270;6.832;2022-08-21T01:05:54;5.13;;;1.75;;
47309;SDS011;33046;52.270;6.832;2022-08-21T01:08:01;4.20;;;1.75;;
47309;SDS011;33046;52.270;6.832;2022-08-21T01:10:09;5.22;;;2.45;;
47309;SDS011;33046;52.270;6.832;2022-08-21T01:12:15;7.13;;;1.90;;
47309;SDS011;33046;52.270;6.832;2022-08-21T01:14:22;4.40;;;1.80;;
47309;SDS011;33046;52.270;6.832;2022-08-21T01:16:30;4.07;;;2.13;;
47309;SDS011;33046;52.270;6.832;2022-08-21T01:18:39;4.85;;;2.10;;
47309;SDS011;33046;52.270;6.832;2022-08-21T01:20:57;5.07;;;2.22;;
47309;SDS011;33046;52.270;6.832;2022-08-21T01:23:06;5.38;;;2.33;;
47309;SDS011;33046;52.270;6.832;2022-08-21T01:25:14;9.25;;;2.85;;
47309;SDS011;33046;52.270;6.832;2022-08-21T01:27:22;6.18;;;2.72;;
47309;SDS011;33046;52.270;6.832;2022-08-21T01:29:31;4.90;;;2.20;;
47309;SDS011;33046;52.270;6.832;2022-08-21T01:31:42;4.78;;;2.25;;
47309;SDS011;33046;52.270;6.832;2022-08-21T01:33:49;4.75;;;2.25;;
47309;SDS011;33046;52.270;6.832;2022-08-21T01:35:57;4.15;;;2.30;;
47309;SDS011;33046;52.270;6.832;2022-08-21T01:38:04;7.35;;;2.63;;
47309;SDS011;33046;52.270;6.832;2022-08-21T01:40:11;5.10;;;2.35;;
47309;SDS011;33046;52.270;6.832;2022-08-21T01:42:19;6.85;;;2.85;;
47309;SDS011;33046;52.270;6.832;2022-08-21T01:44:26;8.00;;;2.72;;
47309;SDS011;33046;52.270;6.832;2022-08-21T01:46:33;6.75;;;2.40;;
47309;SDS011;33046;52.270;6.832;2022-08-21T01:48:40;6.50;;;2.97;;
47309;SDS011;33046;52.270;6.832;2022-08-21T01:50:47;7.07;;;2.30;;
47309;SDS011;33046;52.270;6.832;2022-08-21T01:52:55;3.55;;;1.92;;
47309;SDS011;33046;52.270;6.832;2022-08-21T01:55:02;7.00;;;2.95;;
47309;SDS011;33046;52.270;6.832;2022-08-21T01:57:10;4.30;;;2.20;;
47309;SDS011;33046;52.270;6.832;2022-08-21T01:59:19;8.05;;;3.33;;
47309;SDS011;33046;52.270;6.832;2022-08-21T02:01:28;8.55;;;2.97;;
47309;SDS011;33046;52.270;6.832;2022-08-21T02:03:34;7.03;;;2.60;;
47309;SDS011;33046;52.270;6.832;2022-08-21T02:05:42;5.93;;;3.50;;
47309;SDS011;33046;52.270;6.832;2022-08-21T02:07:51;7.68;;;2.13;;
47309;SDS011;33046;52.270;6.832;2022-08-21T02:10:00;5.90;;;2.70;;
47309;SDS011;33046;52.270;6.832;2022-08-21T02:12:07;7.70;;;3.45;;
47309;SDS011;33046;52.270;6.832;2022-08-21T02:14:14;5.45;;;2.78;;
47309;SDS011;33046;52.270;6.832;2022-08-21T02:16:21;8.40;;;2.92;;
47309;SDS011;33046;52.270;6.832;2022-08-21T02:18:28;4.93;;;2.85;;
47309;SDS011;33046;52.270;6.832;2022-08-21T02:20:36;8.18;;;3.72;;
47309;SDS011;33046;52.270;6.832;2022-08-21T02:22:45;4.85;;;2.50;;
47309;SDS011;33046;52.270;6.832;2022-08-21T02:24:51;7.13;;;2.90;;
47309;SDS011;33046;52.270;6.832;2022-08-21T02:27:00;3.55;;;2.65;;
47309;SDS011;33046;52.270;6.832;2022-08-21T02:29:06;13.73;;;4.55;;
47309;SDS011;33046;52.270;6.832;2022-08-21T02:31:13;5.78;;;3.47;;
47309;SDS011;33046;52.270;6.832;2022-08-21T02:33:20;5.47;;;2.15;;
47309;SDS011;33046;52.270;6.832;2022-08-21T02:35:27;6.53;;;2.40;;
47309;SDS011;33046;52.270;6.832;2022-08-21T02:37:34;6.88;;;2.92;;
47309;SDS011;33046;52.270;6.832;2022-08-21T02:39:48;5.15;;;2.83;;
47309;SDS011;33046;52.270;6.832;2022-08-21T02:41:54;4.68;;;2.63;;
47309;SDS011;33046;52.270;6.832;2022-08-21T02:44:03;6.70;;;3.08;;
47309;SDS011;33046;52.270;6.832;2022-08-21T02:46:10;5.32;;;2.72;;
47309;SDS011;33046;52.270;6.832;2022-08-21T02:48:20;8.48;;;3.60;;
47309;SDS011;33046;52.270;6.832;2022-08-21T02:50:29;9.60;;;3.35;;
47309;SDS011;33046;52.270;6.832;2022-08-21T02:52:38;10.48;;;5.18;;
47309;SDS011;33046;52.270;6.832;2022-08-21T02:54:45;6.32;;;2.88;;
47309;SDS011;33046;52.270;6.832;2022-08-21T02:56:52;6.65;;;3.40;;
47309;SDS011;33046;52.270;6.832;2022-08-21T02:58:59;4.15;;;2.55;;
47309;SDS011;33046;52.270;6.832;2022-08-21T03:01:07;6.72;;;3.08;;
47309;SDS011;33046;52.270;6.832;2022-08-21T03:03:15;6.22;;;3.38;;
47309;SDS011;33046;52.270;6.832;2022-08-21T03:05:22;4.75;;;3.72;;
47309;SDS011;33046;52.270;6.832;2022-08-21T03:07:31;7.65;;;3.75;;
47309;SDS011;33046;52.270;6.832;2022-08-21T03:09:37;4.25;;;2.78;;
47309;SDS011;33046;52.270;6.832;2022-08-21T03:11:44;5.40;;;3.22;;
47309;SDS011;33046;52.270;6.832;2022-08-21T03:13:51;4.50;;;3.17;;
47309;SDS011;33046;52.270;6.832;2022-08-21T03:15:58;5.18;;;3.08;;
47309;SDS011;33046;52.270;6.832;2022-08-21T03:18:07;6.38;;;2.90;;
47309;SDS011;33046;52.270;6.832;2022-08-21T03:20:19;5.03;;;3.55;;
47309;SDS011;33046;52.270;6.832;2022-08-21T03:22:27;7.25;;;3.17;;
47309;SDS011;33046;52.270;6.832;2022-08-21T03:24:34;4.15;;;3.13;;
47309;SDS011;33046;52.270;6.832;2022-08-21T03:26:40;5.30;;;3.20;;
47309;SDS011;33046;52.270;6.832;2022-08-21T03:28:47;5.55;;;2.72;;
47309;SDS011;33046;52.270;6.832;2022-08-21T03:30:54;7.50;;;3.60;;
47309;SDS011;33046;52.270;6.832;2022-08-21T03:33:01;3.95;;;2.78;;
47309;SDS011;33046;52.270;6.832;2022-08-21T03:35:09;6.03;;;3.42;;
47309;SDS011;33046;52.270;6.832;2022-08-21T03:37:16;5.90;;;4.10;;
47309;SDS011;33046;52.270;6.832;2022-08-21T03:39:23;6.53;;;3.42;;
47309;SDS011;33046;52.270;6.832;2022-08-21T03:41:30;9.32;;;3.58;;
47309;SDS011;33046;52.270;6.832;2022-08-21T03:43:37;5.20;;;3.10;;
47309;SDS011;33046;52.270;6.832;2022-08-21T03:45:44;4.20;;;3.25;;
47309;SDS011;33046;52.270;6.832;2022-08-21T03:47:52;7.95;;;3.20;;
47309;SDS011;33046;52.270;6.832;2022-08-21T03:50:00;7.90;;;2.95;;
47309;SDS011;33046;52.270;6.832;2022-08-21T03:52:08;6.60;;;3.20;;
47309;SDS011;33046;52.270;6.832;2022-08-21T03:54:15;6.82;;;3.67;;
47309;SDS011;33046;52.270;6.832;2022-08-21T03:56:22;7.18;;;3.60;;
47309;SDS011;33046;52.270;6.832;2022-08-21T03:58:29;8.05;;;4.35;;
47309;SDS011;33046;52.270;6.832;2022-08-21T04:00:35;6.65;;;2.92;;
47309;SDS011;33046;52.270;6.832;2022-08-21T04:02:42;3.78;;;2.67;;
47309;SDS011;33046;52.270;6.832;2022-08-21T04:04:49;7.97;;;3.28;;
47309;SDS011;33046;52.270;6.832;2022-08-21T04:06:56;4.28;;;2.63;;
47309;SDS011;33046;52.270;6.832;2022-08-21T04:09:04;3.53;;;2.45;;
47309;SDS011;33046;52.270;6.832;2022-08-21T04:11:11;5.03;;;3.10;;
47309;SDS011;33046;52.270;6.832;2022-08-21T04:13:19;4.13;;;2.85;;
47309;SDS011;33046;52.270;6.832;2022-08-21T04:15:26;6.35;;;3.72;;
47309;SDS011;33046;52.270;6.832;2022-08-21T04:17:33;4.28;;;3.40;;
47309;SDS011;33046;52.270;6.832;2022-08-21T04:19:40;6.05;;;3.63;;
47309;SDS011;33046;52.270;6.832;2022-08-21T04:21:47;5.07;;;3.40;;
47309;SDS011;33046;52.270;6.832;2022-08-21T04:23:54;8.00;;;4.20;;
47309;SDS011;33046;52.270;6.832;2022-08-21T04:26:02;8.10;;;3.88;;
47309;SDS011;33046;52.270;6.832;2022-08-21T04:28:09;4.22;;;3.60;;
47309;SDS011;33046;52.270;6.832;2022-08-21T04:30:16;5.28;;;3.80;;
47309;SDS011;33046;52.270;6.832;2022-08-21T04:32:23;7.72;;;4.50;;
47309;SDS011;33046;52.270;6.832;2022-08-21T04:34:32;5.85;;;3.92;;
47309;SDS011;33046;52.270;6.832;2022-08-21T04:36:38;8.10;;;5.07;;
47309;SDS011;33046;52.270;6.832;2022-08-21T04:38:45;7.30;;;4.35;;
47309;SDS011;33046;52.270;6.832;2022-08-21T04:40:52;5.40;;;3.92;;
47309;SDS011;33046;52.270;6.832;2022-08-21T04:43:02;10.10;;;5.10;;
47309;SDS011;33046;52.270;6.832;2022-08-21T04:45:16;8.02;;;4.55;;
47309;SDS011;33046;52.270;6.832;2022-08-21T04:47:24;6.05;;;4.93;;
47309;SDS011;33046;52.270;6.832;2022-08-21T04:49:31;7.63;;;4.82;;
47309;SDS011;33046;52.270;6.832;2022-08-21T04:51:37;8.60;;;5.00;;
47309;SDS011;33046;52.270;6.832;2022-08-21T04:53:45;6.25;;;4.50;;
47309;SDS011;33046;52.270;6.832;2022-08-21T04:55:55;9.23;;;4.97;;
47309;SDS011;33046;52.270;6.832;2022-08-21T04:58:08;6.90;;;5.00;;
47309;SDS011;33046;52.270;6.832;2022-08-21T05:00:17;5.13;;;4.40;;
47309;SDS011;33046;52.270;6.832;2022-08-21T05:02:24;5.72;;;4.75;;
47309;SDS011;33046;52.270;6.832;2022-08-21T05:04:31;8.63;;;5.05;;
47309;SDS011;33046;52.270;6.832;2022-08-21T05:06:40;9.40;;;5.50;;
47309;SDS011;33046;52.270;6.832;2022-08-21T05:08:51;6.88;;;5.10;;
47309;SDS011;33046;52.270;6.832;2022-08-21T05:11:00;8.55;;;5.60;;
47309;SDS011;33046;52.270;6.832;2022-08-21T05:13:11;8.60;;;4.90;;
47309;SDS011;33046;52.270;6.832;2022-08-21T05:15:18;7.93;;;4.55;;
47309;SDS011;33046;52.270;6.832;2022-08-21T05:17:25;10.50;;;4.20;;
47309;SDS011;33046;52.270;6.832;2022-08-21T05:19:32;6.47;;;5.03;;
47309;SDS011;33046;52.270;6.832;2022-08-21T05:21:40;8.57;;;4.72;;
47309;SDS011;33046;52.270;6.832;2022-08-21T05:23:48;6.20;;;5.45;;
47309;SDS011;33046;52.270;6.832;2022-08-21T05:25:54;7.03;;;4.80;;
47309;SDS011;33046;52.270;6.832;2022-08-21T05:28:01;7.95;;;4.85;;
47309;SDS011;33046;52.270;6.832;2022-08-21T05:30:11;8.65;;;5.50;;
47309;SDS011;33046;52.270;6.832;2022-08-21T05:32:19;6.93;;;5.85;;
47309;SDS011;33046;52.270;6.832;2022-08-21T05:34:26;9.25;;;4.78;;
47309;SDS011;33046;52.270;6.832;2022-08-21T05:36:32;5.55;;;4.97;;
47309;SDS011;33046;52.270;6.832;2022-08-21T05:38:39;8.95;;;5.85;;
47309;SDS011;33046;52.270;6.832;2022-08-21T05:40:46;5.80;;;5.18;;
47309;SDS011;33046;52.270;6.832;2022-08-21T05:42:53;6.43;;;5.13;;
47309;SDS011;33046;52.270;6.832;2022-08-21T05:45:01;7.53;;;5.10;;
47309;SDS011;33046;52.270;6.832;2022-08-21T05:47:10;6.07;;;5.40;;
47309;SDS011;33046;52.270;6.832;2022-08-21T05:49:17;11.40;;;6.43;;
47309;SDS011;33046;52.270;6.832;2022-08-21T05:51:23;7.70;;;5.10;;
47309;SDS011;33046;52.270;6.832;2022-08-21T05:53:30;7.05;;;5.45;;
47309;SDS011;33046;52.270;6.832;2022-08-21T05:55:37;7.40;;;5.57;;
47309;SDS011;33046;52.270;6.832;2022-08-21T05:57:48;8.77;;;5.85;;
47309;SDS011;33046;52.270;6.832;2022-08-21T05:59:54;7.60;;;6.35;;
47309;SDS011;33046;52.270;6.832;2022-08-21T06:02:01;8.63;;;5.95;;
47309;SDS011;33046;52.270;6.832;2022-08-21T06:04:12;6.88;;;5.50;;
47309;SDS011;33046;52.270;6.832;2022-08-21T06:06:19;9.05;;;5.80;;
47309;SDS011;33046;52.270;6.832;2022-08-21T06:08:26;6.70;;;5.63;;
47309;SDS011;33046;52.270;6.832;2022-08-21T06:10:33;8.13;;;5.97;;
47309;SDS011;33046;52.270;6.832;2022-08-21T06:12:40;8.02;;;5.57;;
47309;SDS011;33046;52.270;6.832;2022-08-21T06:14:46;6.82;;;4.90;;
47309;SDS011;33046;52.270;6.832;2022-08-21T06:16:53;7.82;;;5.15;;
47309;SDS011;33046;52.270;6.832;2022-08-21T06:19:00;8.27;;;5.97;;
47309;SDS011;33046;52.270;6.832;2022-08-21T06:21:09;7.97;;;6.10;;
47309;SDS011;33046;52.270;6.832;2022-08-21T06:23:16;7.85;;;6.32;;
47309;SDS011;33046;52.270;6.832;2022-08-21T06:25:23;7.65;;;5.05;;
47309;SDS011;33046;52.270;6.832;2022-08-21T06:27:30;7.70;;;5.22;;
47309;SDS011;33046;52.270;6.832;2022-08-21T06:29:37;7.93;;;6.32;;
47309;SDS011;33046;52.270;6.832;2022-08-21T06:31:44;7.53;;;5.43;;
47309;SDS011;33046;52.270;6.832;2022-08-21T06:33:51;7.95;;;5.63;;
47309;SDS011;33046;52.270;6.832;2022-08-21T06:35:58;8.77;;;5.28;;
47309;SDS011;33046;52.270;6.832;2022-08-21T06:38:06;7.50;;;5.18;;
47309;SDS011;33046;52.270;6.832;2022-08-21T06:40:13;9.18;;;4.53;;
47309;SDS011;33046;52.270;6.832;2022-08-21T06:42:19;5.75;;;4.40;;
47309;SDS011;33046;52.270;6.832;2022-08-21T06:44:26;7.95;;;4.60;;
47309;SDS011;33046;52.270;6.832;2022-08-21T06:46:33;6.95;;;3.80;;
47309;SDS011;33046;52.270;6.832;2022-08-21T06:48:40;6.63;;;4.43;;
47309;SDS011;33046;52.270;6.832;2022-08-21T06:50:47;8.10;;;4.13;;
47309;SDS011;33046;52.270;6.832;2022-08-21T06:52:58;8.07;;;4.20;;
47309;SDS011;33046;52.270;6.832;2022-08-21T06:55:08;5.18;;;3.15;;
47309;SDS011;33046;52.270;6.832;2022-08-21T06:57:16;8.00;;;3.90;;
47309;SDS011;33046;52.270;6.832;2022-08-21T06:59:23;4.53;;;2.90;;
47309;SDS011;33046;52.270;6.832;2022-08-21T07:01:30;5.25;;;3.05;;
47309;SDS011;33046;52.270;6.832;2022-08-21T07:03:38;7.15;;;3.10;;
47309;SDS011;33046;52.270;6.832;2022-08-21T07:05:46;3.40;;;2.53;;
47309;SDS011;33046;52.270;6.832;2022-08-21T07:07:53;4.15;;;2.40;;
47309;SDS011;33046;52.270;6.832;2022-08-21T07:10:00;7.15;;;3.10;;
47309;SDS011;33046;52.270;6.832;2022-08-21T07:12:08;4.80;;;2.55;;
47309;SDS011;33046;52.270;6.832;2022-08-21T07:14:15;6.65;;;2.78;;
47309;SDS011;33046;52.270;6.832;2022-08-21T07:16:22;7.03;;;2.05;;
47309;SDS011;33046;52.270;6.832;2022-08-21T07:18:30;7.70;;;2.72;;
47309;SDS011;33046;52.270;6.832;2022-08-21T07:20:37;5.43;;;2.70;;
47309;SDS011;33046;52.270;6.832;2022-08-21T07:22:44;4.45;;;2.17;;
47309;SDS011;33046;52.270;6.832;2022-08-21T07:24:52;4.22;;;1.75;;
47309;SDS011;33046;52.270;6.832;2022-08-21T07:26:59;5.18;;;2.00;;
47309;SDS011;33046;52.270;6.832;2022-08-21T07:29:07;5.50;;;1.90;;
47309;SDS011;33046;52.270;6.832;2022-08-21T07:31:14;3.72;;;1.45;;
47309;SDS011;33046;52.270;6.832;2022-08-21T07:33:24;4.43;;;1.75;;
47309;SDS011;33046;52.270;6.832;2022-08-21T07:35:32;3.30;;;1.30;;
47309;SDS011;33046;52.270;6.832;2022-08-21T07:37:39;4.28;;;2.15;;
47309;SDS011;33046;52.270;6.832;2022-08-21T07:39:45;4.55;;;1.55;;
47309;SDS011;33046;52.270;6.832;2022-08-21T07:41:52;6.13;;;1.63;;
47309;SDS011;33046;52.270;6.832;2022-08-21T07:43:59;3.58;;;1.23;;
47309;SDS011;33046;52.270;6.832;2022-08-21T07:46:07;4.72;;;1.10;;
47309;SDS011;33046;52.270;6.832;2022-08-21T07:48:14;6.25;;;1.15;;
47309;SDS011;33046;52.270;6.832;2022-08-21T07:50:21;3.70;;;1.05;;
47309;SDS011;33046;52.270;6.832;2022-08-21T07:52:28;2.70;;;1.08;;
47309;SDS011;33046;52.270;6.832;2022-08-21T07:54:34;8.52;;;1.55;;
47309;SDS011;33046;52.270;6.832;2022-08-21T07:56:41;3.55;;;1.65;;
47309;SDS011;33046;52.270;6.832;2022-08-21T07:58:48;4.82;;;1.40;;
47309;SDS011;33046;52.270;6.832;2022-08-21T08:00:55;4.05;;;1.42;;
47309;SDS011;33046;52.270;6.832;2022-08-21T08:03:03;7.93;;;2.15;;
47309;SDS011;33046;52.270;6.832;2022-08-21T08:05:10;4.72;;;1.83;;
47309;SDS011;33046;52.270;6.832;2022-08-21T08:07:17;4.88;;;1.85;;
47309;SDS011;33046;52.270;6.832;2022-08-21T08:09:25;5.13;;;2.30;;
47309;SDS011;33046;52.270;6.832;2022-08-21T08:11:31;3.53;;;1.48;;
47309;SDS011;33046;52.270;6.832;2022-08-21T08:13:39;4.10;;;1.92;;
47309;SDS011;33046;52.270;6.832;2022-08-21T08:15:46;5.60;;;2.17;;
47309;SDS011;33046;52.270;6.832;2022-08-21T08:17:53;7.03;;;2.50;;
47309;SDS011;33046;52.270;6.832;2022-08-21T08:20:03;4.38;;;1.90;;
47309;SDS011;33046;52.270;6.832;2022-08-21T08:22:14;5.75;;;2.28;;
47309;SDS011;33046;52.270;6.832;2022-08-21T08:24:21;7.90;;;2.03;;
47309;SDS011;33046;52.270;6.832;2022-08-21T08:26:28;4.80;;;1.90;;
47309;SDS011;33046;52.270;6.832;2022-08-21T08:28:35;5.90;;;1.98;;
47309;SDS011;33046;52.270;6.832;2022-08-21T08:30:41;2.55;;;1.38;;
47309;SDS011;33046;52.270;6.832;2022-08-21T08:32:48;4.82;;;1.58;;
47309;SDS011;33046;52.270;6.832;2022-08-21T08:34:55;3.70;;;1.40;;
47309;SDS011;33046;52.270;6.832;2022-08-21T08:37:04;6.68;;;3.67;;
47309;SDS011;33046;52.270;6.832;2022-08-21T08:39:12;3.42;;;1.27;;
47309;SDS011;33046;52.270;6.832;2022-08-21T08:41:19;6.95;;;1.77;;
47309;SDS011;33046;52.270;6.832;2022-08-21T08:43:26;3.70;;;1.38;;
47309;SDS011;33046;52.270;6.832;2022-08-21T08:45:34;4.82;;;1.98;;
47309;SDS011;33046;52.270;6.832;2022-08-21T08:47:45;6.75;;;2.03;;
47309;SDS011;33046;52.270;6.832;2022-08-21T08:49:55;5.22;;;2.00;;
47309;SDS011;33046;52.270;6.832;2022-08-21T08:52:17;3.08;;;1.65;;
47309;SDS011;33046;52.270;6.832;2022-08-21T08:54:29;6.65;;;2.42;;
47309;SDS011;33046;52.270;6.832;2022-08-21T08:56:39;9.02;;;2.50;;
47309;SDS011;33046;52.270;6.832;2022-08-21T08:58:46;8.70;;;2.58;;
47309;SDS011;33046;52.270;6.832;2022-08-21T09:00:54;6.50;;;2.78;;
47309;SDS011;33046;52.270;6.832;2022-08-21T09:03:02;10.50;;;2.67;;
47309;SDS011;33046;52.270;6.832;2022-08-21T09:05:12;8.57;;;2.25;;
47309;SDS011;33046;52.270;6.832;2022-08-21T09:07:30;6.03;;;2.80;;
47309;SDS011;33046;52.270;6.832;2022-08-21T09:09:48;7.22;;;2.90;;
47309;SDS011;33046;52.270;6.832;2022-08-21T09:12:06;6.03;;;1.80;;
47309;SDS011;33046;52.270;6.832;2022-08-21T09:14:21;7.88;;;2.10;;
47309;SDS011;33046;52.270;6.832;2022-08-21T09:16:38;6.78;;;1.77;;
47309;SDS011;33046;52.270;6.832;2022-08-21T09:18:54;3.10;;;1.58;;
47309;SDS011;33046;52.270;6.832;2022-08-21T09:21:11;7.90;;;2.15;;
47309;SDS011;33046;52.270;6.832;2022-08-21T09:23:28;6.82;;;1.90;;
47309;SDS011;33046;52.270;6.832;2022-08-21T09:25:49;6.22;;;2.28;;
47309;SDS011;33046;52.270;6.832;2022-08-21T09:28:02;6.78;;;1.70;;
47309;SDS011;33046;52.270;6.832;2022-08-21T09:30:09;6.50;;;2.78;;
47309;SDS011;33046;52.270;6.832;2022-08-21T09:32:17;5.30;;;1.92;;
47309;SDS011;33046;52.270;6.832;2022-08-21T09:34:28;6.28;;;2.10;;
47309;SDS011;33046;52.270;6.832;2022-08-21T09:36:38;6.60;;;1.85;;
47309;SDS011;33046;52.270;6.832;2022-08-21T09:38:51;5.82;;;2.10;;
47309;SDS011;33046;52.270;6.832;2022-08-21T09:41:01;8.23;;;2.10;;
47309;SDS011;33046;52.270;6.832;2022-08-21T09:43:16;5.68;;;1.73;;
47309;SDS011;33046;52.270;6.832;2022-08-21T09:45:23;7.18;;;2.35;;
47309;SDS011;33046;52.270;6.832;2022-08-21T09:47:30;7.28;;;2.33;;
47309;SDS011;33046;52.270;6.832;2022-08-21T09:49:38;6.10;;;1.98;;
47309;SDS011;33046;52.270;6.832;2022-08-21T09:51:49;5.45;;;2.63;;
47309;SDS011;33046;52.270;6.832;2022-08-21T09:54:13;6.68;;;1.95;;
47309;SDS011;33046;52.270;6.832;2022-08-21T09:56:27;5.75;;;1.60;;
47309;SDS011;33046;52.270;6.832;2022-08-21T09:58:37;4.03;;;2.10;;
47309;SDS011;33046;52.270;6.832;2022-08-21T10:00:45;6.38;;;2.00;;
47309;SDS011;33046;52.270;6.832;2022-08-21T10:03:12;3.45;;;1.95;;
47309;SDS011;33046;52.270;6.832;2022-08-21T10:05:23;6.65;;;2.15;;
47309;SDS011;33046;52.270;6.832;2022-08-21T10:07:32;3.67;;;1.67;;
47309;SDS011;33046;52.270;6.832;2022-08-21T10:09:44;4.78;;;1.30;;
47309;SDS011;33046;52.270;6.832;2022-08-21T10:11:53;5.90;;;1.60;;
47309;SDS011;33046;52.270;6.832;2022-08-21T10:14:14;5.70;;;1.33;;
47309;SDS011;33046;52.270;6.832;2022-08-21T10:16:30;7.65;;;0.98;;
47309;SDS011;33046;52.270;6.832;2022-08-21T10:18:43;4.22;;;1.17;;
47309;SDS011;33046;52.270;6.832;2022-08-21T10:21:09;4.72;;;1.40;;
47309;SDS011;33046;52.270;6.832;2022-08-21T10:23:33;2.83;;;1.20;;
47309;SDS011;33046;52.270;6.832;2022-08-21T10:25:49;5.35;;;1.42;;
47309;SDS011;33046;52.270;6.832;2022-08-21T10:28:04;5.03;;;1.25;;
47309;SDS011;33046;52.270;6.832;2022-08-21T10:30:19;4.97;;;1.77;;
47309;SDS011;33046;52.270;6.832;2022-08-21T10:32:38;7.22;;;1.95;;
47309;SDS011;33046;52.270;6.832;2022-08-21T10:34:55;6.22;;;1.20;;
47309;SDS011;33046;52.270;6.832;2022-08-21T10:37:18;4.30;;;1.90;;
47309;SDS011;33046;52.270;6.832;2022-08-21T10:39:33;4.60;;;1.83;;
47309;SDS011;33046;52.270;6.832;2022-08-21T10:41:48;4.95;;;1.98;;
47309;SDS011;33046;52.270;6.832;2022-08-21T10:44:14;4.28;;;1.13;;
47309;SDS011;33046;52.270;6.832;2022-08-21T10:46:37;6.72;;;1.50;;
47309;SDS011;33046;52.270;6.832;2022-08-21T10:48:54;6.78;;;2.33;;
47309;SDS011;33046;52.270;6.832;2022-08-21T10:51:05;3.60;;;1.40;;
47309;SDS011;33046;52.270;6.832;2022-08-21T10:53:29;4.18;;;1.60;;
47309;SDS011;33046;52.270;6.832;2022-08-21T10:55:50;8.30;;;1.70;;
47309;SDS011;33046;52.270;6.832;2022-08-21T10:58:04;4.90;;;2.03;;
47309;SDS011;33046;52.270;6.832;2022-08-21T11:00:16;7.68;;;2.58;;
47309;SDS011;33046;52.270;6.832;2022-08-21T11:02:25;3.35;;;1.35;;
47309;SDS011;33046;52.270;6.832;2022-08-21T11:04:38;3.83;;;1.77;;
47309;SDS011;33046;52.270;6.832;2022-08-21T11:06:52;5.07;;;1.70;;
47309;SDS011;33046;52.270;6.832;2022-08-21T11:09:03;3.92;;;1.17;;
47309;SDS011;33046;52.270;6.832;2022-08-21T11:11:16;5.45;;;1.55;;
47309;SDS011;33046;52.270;6.832;2022-08-21T11:13:31;5.78;;;1.58;;
47309;SDS011;33046;52.270;6.832;2022-08-21T11:15:43;4.43;;;1.23;;
47309;SDS011;33046;52.270;6.832;2022-08-21T11:17:59;5.32;;;1.20;;
47309;SDS011;33046;52.270;6.832;2022-08-21T11:20:17;3.97;;;1.20;;
47309;SDS011;33046;52.270;6.832;2022-08-21T11:22:33;5.53;;;1.20;;
47309;SDS011;33046;52.270;6.832;2022-08-21T11:24:46;5.28;;;1.10;;
47309;SDS011;33046;52.270;6.832;2022-08-21T11:29:08;10.18;;;1.60;;
47309;SDS011;33046;52.270;6.832;2022-08-21T11:31:26;4.80;;;1.00;;
47309;SDS011;33046;52.270;6.832;2022-08-21T11:33:45;5.97;;;1.05;;
47309;SDS011;33046;52.270;6.832;2022-08-21T11:36:00;2.75;;;1.08;;
47309;SDS011;33046;52.270;6.832;2022-08-21T11:38:21;3.70;;;1.10;;
47309;SDS011;33046;52.270;6.832;2022-08-21T11:40:37;5.07;;;1.10;;
47309;SDS011;33046;52.270;6.832;2022-08-21T11:42:55;6.15;;;1.60;;
47309;SDS011;33046;52.270;6.832;2022-08-21T11:45:13;3.80;;;0.98;;
47309;SDS011;33046;52.270;6.832;2022-08-21T11:47:29;6.38;;;1.20;;
47309;SDS011;33046;52.270;6.832;2022-08-21T11:49:50;2.83;;;0.90;;
47309;SDS011;33046;52.270;6.832;2022-08-21T11:52:09;10.57;;;1.33;;
47309;SDS011;33046;52.270;6.832;2022-08-21T11:54:26;4.90;;;0.95;;
47309;SDS011;33046;52.270;6.832;2022-08-21T11:56:41;7.25;;;1.35;;
47309;SDS011;33046;52.270;6.832;2022-08-21T11:58:52;5.70;;;1.33;;
47309;SDS011;33046;52.270;6.832;2022-08-21T12:01:05;5.80;;;1.00;;
47309;SDS011;33046;52.270;6.832;2022-08-21T12:03:16;4.03;;;0.90;;
47309;SDS011;33046;52.270;6.832;2022-08-21T12:05:32;2.80;;;0.80;;
47309;SDS011;33046;52.270;6.832;2022-08-21T12:07:43;6.28;;;1.33;;
47309;SDS011;33046;52.270;6.832;2022-08-21T12:09:52;5.18;;;0.88;;
47309;SDS011;33046;52.270;6.832;2022-08-21T12:12:02;10.63;;;1.83;;
47309;SDS011;33046;52.270;6.832;2022-08-21T12:14:12;5.25;;;2.45;;
47309;SDS011;33046;52.270;6.832;2022-08-21T12:16:29;5.22;;;0.90;;
47309;SDS011;33046;52.270;6.832;2022-08-21T12:18:38;4.35;;;1.05;;
47309;SDS011;33046;52.270;6.832;2022-08-21T12:20:56;5.22;;;1.10;;
47309;SDS011;33046;52.270;6.832;2022-08-21T12:23:16;4.68;;;1.20;;
47309;SDS011;33046;52.270;6.832;2022-08-21T12:25:35;6.82;;;0.80;;
47309;SDS011;33046;52.270;6.832;2022-08-21T12:27:44;5.88;;;1.60;;
47309;SDS011;33046;52.270;6.832;2022-08-21T12:29:54;4.30;;;1.20;;
47309;SDS011;33046;52.270;6.832;2022-08-21T12:32:19;3.13;;;0.90;;
47309;SDS011;33046;52.270;6.832;2022-08-21T12:34:34;5.28;;;0.88;;
47309;SDS011;33046;52.270;6.832;2022-08-21T12:38:52;5.28;;;1.20;;
47309;SDS011;33046;52.270;6.832;2022-08-21T12:41:03;6.90;;;1.10;;
47309;SDS011;33046;52.270;6.832;2022-08-21T12:43:13;4.57;;;1.35;;
47309;SDS011;33046;52.270;6.832;2022-08-21T12:45:26;9.82;;;1.98;;
47309;SDS011;33046;52.270;6.832;2022-08-21T12:47:43;7.00;;;1.42;;
47309;SDS011;33046;52.270;6.832;2022-08-21T12:49:54;2.45;;;0.70;;
47309;SDS011;33046;52.270;6.832;2022-08-21T12:52:09;5.85;;;0.90;;
47309;SDS011;33046;52.270;6.832;2022-08-21T12:54:24;5.55;;;1.35;;
47309;SDS011;33046;52.270;6.832;2022-08-21T12:56:34;6.05;;;1.02;;
47309;SDS011;33046;52.270;6.832;2022-08-21T12:58:44;3.13;;;0.80;;
47309;SDS011;33046;52.270;6.832;2022-08-21T13:00:54;5.65;;;0.90;;
47309;SDS011;33046;52.270;6.832;2022-08-21T13:03:06;5.38;;;0.70;;
47309;SDS011;33046;52.270;6.832;2022-08-21T13:05:14;4.15;;;1.10;;
47309;SDS011;33046;52.270;6.832;2022-08-21T13:07:27;3.90;;;1.47;;